sensor_id;sensor_type;location;lat;lon;timestamp;temperature;humidity
14473;DHT22;7322;50.872;4.386;2022-08-14T00:02:06;24.70;63.50
14473;DHT22;7322;50.872;4.386;2022-08-14T00:04:33;24.70;63.50
14473;DHT22;7322;50.872;4.386;2022-08-14T00:07:01;24.70;63.40
14473;DHT22;7322;50.872;4.386;2022-08-14T00:09:28;24.70;63.40
14473;DHT22;7322;50.872;4.386;2022-08-14T00:11:55;24.70;63.40
14473;DHT22;7322;50.872;4.386;2022-08-14T00:14:22;24.60;63.50
14473;DHT22;7322;50.872;4.386;2022-08-14T00:16:49;24.60;63.60
14473;DHT22;7322;50.872;4.386;2022-08-14T00:19:18;24.70;63.30
14473;DHT22;7322;50.872;4.386;2022-08-14T00:21:45;24.70;63.20
14473;DHT22;7322;50.872;4.386;2022-08-14T00:24:12;24.70;62.40
14473;DHT22;7322;50.872;4.386;2022-08-14T00:26:39;24.70;62.60
14473;DHT22;7322;50.872;4.386;2022-08-14T00:29:06;24.70;61.90
14473;DHT22;7322;50.872;4.386;2022-08-14T00:31:33;24.70;61.80
14473;DHT22;7322;50.872;4.386;2022-08-14T00:33:59;24.80;62.50
14473;DHT22;7322;50.872;4.386;2022-08-14T00:36:28;24.80;61.50
14473;DHT22;7322;50.872;4.386;2022-08-14T00:38:55;24.80;62.20
14473;DHT22;7322;50.872;4.386;2022-08-14T00:41:22;24.90;61.10
14473;DHT22;7322;50.872;4.386;2022-08-14T00:43:49;24.90;60.50
14473;DHT22;7322;50.872;4.386;2022-08-14T00:46:16;24.90;60.90
14473;DHT22;7322;50.872;4.386;2022-08-14T00:48:43;24.90;60.50
14473;DHT22;7322;50.872;4.386;2022-08-14T00:51:10;24.90;60.20
14473;DHT22;7322;50.872;4.386;2022-08-14T00:53:39;24.90;59.90
14473;DHT22;7322;50.872;4.386;2022-08-14T00:56:07;25.00;59.90
14473;DHT22;7322;50.872;4.386;2022-08-14T00:58:34;25.00;59.60
14473;DHT22;7322;50.872;4.386;2022-08-14T01:01:04;25.00;59.60
14473;DHT22;7322;50.872;4.386;2022-08-14T01:03:34;25.00;59.70
14473;DHT22;7322;50.872;4.386;2022-08-14T01:06:06;25.00;59.70
14473;DHT22;7322;50.872;4.386;2022-08-14T01:08:35;25.00;59.60
14473;DHT22;7322;50.872;4.386;2022-08-14T01:11:06;25.10;60.70
14473;DHT22;7322;50.872;4.386;2022-08-14T01:13:35;24.90;60.40
14473;DHT22;7322;50.872;4.386;2022-08-14T01:16:06;24.90;60.70
14473;DHT22;7322;50.872;4.386;2022-08-14T01:18:33;24.80;62.00
14473;DHT22;7322;50.872;4.386;2022-08-14T01:21:24;24.70;61.10
14473;DHT22;7322;50.872;4.386;2022-08-14T01:23:52;24.60;62.30
14473;DHT22;7322;50.872;4.386;2022-08-14T01:26:21;24.50;62.80
14473;DHT22;7322;50.872;4.386;2022-08-14T01:28:49;24.50;64.90
14473;DHT22;7322;50.872;4.386;2022-08-14T01:31:21;24.40;63.20
14473;DHT22;7322;50.872;4.386;2022-08-14T01:33:50;24.30;65.70
14473;DHT22;7322;50.872;4.386;2022-08-14T01:36:18;24.50;68.40
14473;DHT22;7322;50.872;4.386;2022-08-14T01:38:47;24.40;70.90
14473;DHT22;7322;50.872;4.386;2022-08-14T01:41:16;24.30;70.60
14473;DHT22;7322;50.872;4.386;2022-08-14T01:43:46;24.10;72.10
14473;DHT22;7322;50.872;4.386;2022-08-14T01:46:15;24.10;71.70
14473;DHT22;7322;50.872;4.386;2022-08-14T01:48:43;24.10;72.70
14473;DHT22;7322;50.872;4.386;2022-08-14T01:51:11;24.00;73.70
14473;DHT22;7322;50.872;4.386;2022-08-14T01:53:40;23.90;76.80
14473;DHT22;7322;50.872;4.386;2022-08-14T01:56:08;23.90;76.90
14473;DHT22;7322;50.872;4.386;2022-08-14T01:58:36;23.80;78.30
14473;DHT22;7322;50.872;4.386;2022-08-14T02:01:03;23.80;79.40
14473;DHT22;7322;50.872;4.386;2022-08-14T02:03:31;23.60;81.00
14473;DHT22;7322;50.872;4.386;2022-08-14T02:06:02;23.60;82.20
14473;DHT22;7322;50.872;4.386;2022-08-14T02:08:30;23.50;83.90
14473;DHT22;7322;50.872;4.386;2022-08-14T02:10:58;23.40;85.40
14473;DHT22;7322;50.872;4.386;2022-08-14T02:13:52;23.40;86.10
14473;DHT22;7322;50.872;4.386;2022-08-14T02:16:21;23.40;87.60
14473;DHT22;7322;50.872;4.386;2022-08-14T02:18:50;23.40;89.20
14473;DHT22;7322;50.872;4.386;2022-08-14T02:21:17;23.30;89.90
14473;DHT22;7322;50.872;4.386;2022-08-14T02:23:45;23.20;90.70
14473;DHT22;7322;50.872;4.386;2022-08-14T02:26:15;23.30;91.20
14473;DHT22;7322;50.872;4.386;2022-08-14T02:28:42;23.30;91.10
14473;DHT22;7322;50.872;4.386;2022-08-14T02:31:12;23.30;91.20
14473;DHT22;7322;50.872;4.386;2022-08-14T02:33:39;23.20;91.30
14473;DHT22;7322;50.872;4.386;2022-08-14T02:36:07;23.20;91.40
14473;DHT22;7322;50.872;4.386;2022-08-14T02:38:35;23.20;91.60
14473;DHT22;7322;50.872;4.386;2022-08-14T02:41:03;23.30;91.40
14473;DHT22;7322;50.872;4.386;2022-08-14T02:43:31;23.40;91.40
14473;DHT22;7322;50.872;4.386;2022-08-14T02:45:57;23.30;91.60
14473;DHT22;7322;50.872;4.386;2022-08-14T02:48:26;23.30;91.90
14473;DHT22;7322;50.872;4.386;2022-08-14T02:51:01;23.30;92.10
14473;DHT22;7322;50.872;4.386;2022-08-14T02:53:29;23.30;92.00
14473;DHT22;7322;50.872;4.386;2022-08-14T02:55:57;23.20;92.10
14473;DHT22;7322;50.872;4.386;2022-08-14T02:58:24;23.20;92.40
14473;DHT22;7322;50.872;4.386;2022-08-14T03:00:52;23.20;92.30
14473;DHT22;7322;50.872;4.386;2022-08-14T03:03:20;23.20;92.50
14473;DHT22;7322;50.872;4.386;2022-08-14T03:05:50;23.20;92.20
14473;DHT22;7322;50.872;4.386;2022-08-14T03:08:17;23.20;91.50
14473;DHT22;7322;50.872;4.386;2022-08-14T03:10:45;23.20;91.30
14473;DHT22;7322;50.872;4.386;2022-08-14T03:13:12;23.30;90.70
14473;DHT22;7322;50.872;4.386;2022-08-14T03:15:39;23.20;91.30
14473;DHT22;7322;50.872;4.386;2022-08-14T03:18:10;23.10;91.60
14473;DHT22;7322;50.872;4.386;2022-08-14T03:20:37;23.10;92.20
14473;DHT22;7322;50.872;4.386;2022-08-14T03:23:05;23.10;91.50
14473;DHT22;7322;50.872;4.386;2022-08-14T03:25:32;23.10;89.20
14473;DHT22;7322;50.872;4.386;2022-08-14T03:28:02;23.10;90.10
14473;DHT22;7322;50.872;4.386;2022-08-14T03:30:30;23.20;89.40
14473;DHT22;7322;50.872;4.386;2022-08-14T03:32:57;23.20;88.40
14473;DHT22;7322;50.872;4.386;2022-08-14T03:35:25;23.20;88.00
14473;DHT22;7322;50.872;4.386;2022-08-14T03:37:52;23.20;87.90
14473;DHT22;7322;50.872;4.386;2022-08-14T03:40:21;23.20;87.70
14473;DHT22;7322;50.872;4.386;2022-08-14T03:42:49;23.10;88.60
14473;DHT22;7322;50.872;4.386;2022-08-14T03:45:16;23.10;87.90
14473;DHT22;7322;50.872;4.386;2022-08-14T03:47:43;23.10;87.80
14473;DHT22;7322;50.872;4.386;2022-08-14T03:50:11;23.10;88.00
14473;DHT22;7322;50.872;4.386;2022-08-14T03:52:38;23.00;90.80
14473;DHT22;7322;50.872;4.386;2022-08-14T03:55:07;23.00;91.90
14473;DHT22;7322;50.872;4.386;2022-08-14T03:57:37;22.90;92.60
14473;DHT22;7322;50.872;4.386;2022-08-14T04:00:07;22.90;93.60
14473;DHT22;7322;50.872;4.386;2022-08-14T04:02:35;22.80;94.50
14473;DHT22;7322;50.872;4.386;2022-08-14T04:05:03;22.80;94.90
14473;DHT22;7322;50.872;4.386;2022-08-14T04:07:30;22.70;95.00
14473;DHT22;7322;50.872;4.386;2022-08-14T04:10:01;22.70;95.30
14473;DHT22;7322;50.872;4.386;2022-08-14T04:12:28;22.60;95.80
14473;DHT22;7322;50.872;4.386;2022-08-14T04:14:56;22.50;96.10
14473;DHT22;7322;50.872;4.386;2022-08-14T04:17:23;22.50;96.50
14473;DHT22;7322;50.872;4.386;2022-08-14T04:19:52;22.40;97.00
14473;DHT22;7322;50.872;4.386;2022-08-14T04:22:19;22.40;97.20
14473;DHT22;7322;50.872;4.386;2022-08-14T04:24:46;22.40;97.70
14473;DHT22;7322;50.872;4.386;2022-08-14T04:27:13;22.30;98.20
14473;DHT22;7322;50.872;4.386;2022-08-14T04:29:42;22.20;98.80
14473;DHT22;7322;50.872;4.386;2022-08-14T04:32:11;22.20;99.20
14473;DHT22;7322;50.872;4.386;2022-08-14T04:34:39;22.00;99.60
14473;DHT22;7322;50.872;4.386;2022-08-14T04:37:07;22.00;99.70
14473;DHT22;7322;50.872;4.386;2022-08-14T04:39:53;22.00;99.80
14473;DHT22;7322;50.872;4.386;2022-08-14T04:42:38;22.00;99.90
14473;DHT22;7322;50.872;4.386;2022-08-14T04:45:25;21.90;99.90
14473;DHT22;7322;50.872;4.386;2022-08-14T04:47:58;21.90;99.90
14473;DHT22;7322;50.872;4.386;2022-08-14T04:50:43;22.00;99.90
14473;DHT22;7322;50.872;4.386;2022-08-14T04:53:12;21.90;99.90
14473;DHT22;7322;50.872;4.386;2022-08-14T04:55:40;22.00;99.90
14473;DHT22;7322;50.872;4.386;2022-08-14T04:58:09;21.90;99.90
14473;DHT22;7322;50.872;4.386;2022-08-14T05:00:36;21.90;99.90
14473;DHT22;7322;50.872;4.386;2022-08-14T05:03:06;22.00;99.90
14473;DHT22;7322;50.872;4.386;2022-08-14T05:05:33;22.00;99.90
14473;DHT22;7322;50.872;4.386;2022-08-14T05:08:06;22.00;99.90
14473;DHT22;7322;50.872;4.386;2022-08-14T05:10:35;21.90;99.90
14473;DHT22;7322;50.872;4.386;2022-08-14T05:13:02;21.90;99.90
14473;DHT22;7322;50.872;4.386;2022-08-14T05:15:32;21.90;99.90
14473;DHT22;7322;50.872;4.386;2022-08-14T05:18:01;22.10;99.90
14473;DHT22;7322;50.872;4.386;2022-08-14T05:20:30;22.10;99.90
14473;DHT22;7322;50.872;4.386;2022-08-14T05:22:57;22.00;99.90
14473;DHT22;7322;50.872;4.386;2022-08-14T05:25:25;22.00;99.90
14473;DHT22;7322;50.872;4.386;2022-08-14T05:27:52;22.00;99.90
14473;DHT22;7322;50.872;4.386;2022-08-14T05:30:21;22.00;99.90
14473;DHT22;7322;50.872;4.386;2022-08-14T05:32:48;22.00;99.90
14473;DHT22;7322;50.872;4.386;2022-08-14T05:35:15;22.10;99.90
14473;DHT22;7322;50.872;4.386;2022-08-14T05:37:45;22.10;99.90
14473;DHT22;7322;50.872;4.386;2022-08-14T05:40:12;22.00;99.90
14473;DHT22;7322;50.872;4.386;2022-08-14T05:42:38;22.10;99.90
14473;DHT22;7322;50.872;4.386;2022-08-14T05:45:06;22.20;99.90
14473;DHT22;7322;50.872;4.386;2022-08-14T05:47:38;22.10;99.90
14473;DHT22;7322;50.872;4.386;2022-08-14T05:50:10;22.10;99.90
14473;DHT22;7322;50.872;4.386;2022-08-14T05:52:37;22.20;99.90
14473;DHT22;7322;50.872;4.386;2022-08-14T05:55:08;22.30;99.80
14473;DHT22;7322;50.872;4.386;2022-08-14T05:57:45;22.40;99.50
14473;DHT22;7322;50.872;4.386;2022-08-14T06:00:14;22.50;98.70
14473;DHT22;7322;50.872;4.386;2022-08-14T06:02:41;22.50;98.40
14473;DHT22;7322;50.872;4.386;2022-08-14T06:05:08;22.60;98.30
14473;DHT22;7322;50.872;4.386;2022-08-14T06:07:35;22.70;98.30
14473;DHT22;7322;50.872;4.386;2022-08-14T06:10:02;22.90;97.60
14473;DHT22;7322;50.872;4.386;2022-08-14T06:12:31;23.30;97.40
14473;DHT22;7322;50.872;4.386;2022-08-14T06:14:58;24.00;95.60
14473;DHT22;7322;50.872;4.386;2022-08-14T06:17:25;25.30;93.50
14473;DHT22;7322;50.872;4.386;2022-08-14T06:19:52;26.90;89.00
14473;DHT22;7322;50.872;4.386;2022-08-14T06:22:19;28.40;79.10
14473;DHT22;7322;50.872;4.386;2022-08-14T06:24:46;29.90;71.70
14473;DHT22;7322;50.872;4.386;2022-08-14T06:27:13;30.90;63.50
14473;DHT22;7322;50.872;4.386;2022-08-14T06:29:41;31.60;59.10
14473;DHT22;7322;50.872;4.386;2022-08-14T06:32:08;32.30;56.70
14473;DHT22;7322;50.872;4.386;2022-08-14T06:34:35;32.90;53.30
14473;DHT22;7322;50.872;4.386;2022-08-14T06:37:03;33.10;52.90
14473;DHT22;7322;50.872;4.386;2022-08-14T06:39:30;33.60;49.10
14473;DHT22;7322;50.872;4.386;2022-08-14T06:41:58;33.80;48.00
14473;DHT22;7322;50.872;4.386;2022-08-14T06:44:26;33.70;46.30
14473;DHT22;7322;50.872;4.386;2022-08-14T06:46:54;32.60;47.20
14473;DHT22;7322;50.872;4.386;2022-08-14T06:49:21;32.60;47.40
14473;DHT22;7322;50.872;4.386;2022-08-14T06:51:50;33.70;45.00
14473;DHT22;7322;50.872;4.386;2022-08-14T06:54:18;34.00;44.30
14473;DHT22;7322;50.872;4.386;2022-08-14T06:56:45;34.10;42.80
14473;DHT22;7322;50.872;4.386;2022-08-14T06:59:13;33.50;42.70
14473;DHT22;7322;50.872;4.386;2022-08-14T07:01:40;34.40;42.40
14473;DHT22;7322;50.872;4.386;2022-08-14T07:04:26;34.20;42.20
14473;DHT22;7322;50.872;4.386;2022-08-14T07:07:21;34.60;41.70
14473;DHT22;7322;50.872;4.386;2022-08-14T07:09:48;33.90;42.10
14473;DHT22;7322;50.872;4.386;2022-08-14T07:12:15;33.80;42.30
14473;DHT22;7322;50.872;4.386;2022-08-14T07:14:42;35.20;41.10
14473;DHT22;7322;50.872;4.386;2022-08-14T07:17:09;35.60;40.50
14473;DHT22;7322;50.872;4.386;2022-08-14T07:19:37;35.30;39.90
14473;DHT22;7322;50.872;4.386;2022-08-14T07:22:04;35.50;39.40
14473;DHT22;7322;50.872;4.386;2022-08-14T07:24:31;36.70;39.10
14473;DHT22;7322;50.872;4.386;2022-08-14T07:26:58;37.90;37.10
14473;DHT22;7322;50.872;4.386;2022-08-14T07:29:25;38.00;35.60
14473;DHT22;7322;50.872;4.386;2022-08-14T07:31:51;37.70;35.40
14473;DHT22;7322;50.872;4.386;2022-08-14T07:34:18;36.90;35.60
14473;DHT22;7322;50.872;4.386;2022-08-14T07:36:47;37.00;35.50
14473;DHT22;7322;50.872;4.386;2022-08-14T07:39:14;36.80;35.30
14473;DHT22;7322;50.872;4.386;2022-08-14T07:41:40;36.90;35.70
14473;DHT22;7322;50.872;4.386;2022-08-14T07:44:09;38.70;34.70
14473;DHT22;7322;50.872;4.386;2022-08-14T07:46:38;38.70;34.20
14473;DHT22;7322;50.872;4.386;2022-08-14T07:49:05;39.00;33.30
14473;DHT22;7322;50.872;4.386;2022-08-14T07:51:33;38.40;32.70
14473;DHT22;7322;50.872;4.386;2022-08-14T07:54:02;38.80;32.30
14473;DHT22;7322;50.872;4.386;2022-08-14T07:56:29;38.50;32.10
14473;DHT22;7322;50.872;4.386;2022-08-14T07:58:56;36.80;32.90
14473;DHT22;7322;50.872;4.386;2022-08-14T08:01:23;36.70;33.50
14473;DHT22;7322;50.872;4.386;2022-08-14T08:03:51;36.40;33.80
14473;DHT22;7322;50.872;4.386;2022-08-14T08:06:18;36.90;33.60
14473;DHT22;7322;50.872;4.386;2022-08-14T08:08:47;37.50;33.30
14473;DHT22;7322;50.872;4.386;2022-08-14T08:11:18;36.90;33.00
14473;DHT22;7322;50.872;4.386;2022-08-14T08:13:45;36.70;33.10
14473;DHT22;7322;50.872;4.386;2022-08-14T08:16:13;37.20;33.80
14473;DHT22;7322;50.872;4.386;2022-08-14T08:18:40;37.40;33.80
14473;DHT22;7322;50.872;4.386;2022-08-14T08:21:07;37.30;32.50
14473;DHT22;7322;50.872;4.386;2022-08-14T08:23:36;36.10;33.50
14473;DHT22;7322;50.872;4.386;2022-08-14T08:26:03;35.90;35.00
14473;DHT22;7322;50.872;4.386;2022-08-14T08:28:31;36.50;34.30
14473;DHT22;7322;50.872;4.386;2022-08-14T08:31:00;36.90;33.50
14473;DHT22;7322;50.872;4.386;2022-08-14T08:33:29;36.60;33.20
14473;DHT22;7322;50.872;4.386;2022-08-14T08:35:57;36.00;33.40
14473;DHT22;7322;50.872;4.386;2022-08-14T08:38:26;35.40;34.40
14473;DHT22;7322;50.872;4.386;2022-08-14T08:40:54;36.10;33.30
14473;DHT22;7322;50.872;4.386;2022-08-14T08:43:23;36.50;33.20
14473;DHT22;7322;50.872;4.386;2022-08-14T08:45:57;37.20;32.80
14473;DHT22;7322;50.872;4.386;2022-08-14T08:48:26;36.80;32.40
14473;DHT22;7322;50.872;4.386;2022-08-14T08:50:54;36.30;33.00
14473;DHT22;7322;50.872;4.386;2022-08-14T08:53:21;35.40;33.60
14473;DHT22;7322;50.872;4.386;2022-08-14T08:55:48;35.40;33.50
14473;DHT22;7322;50.872;4.386;2022-08-14T08:58:17;34.70;34.90
14473;DHT22;7322;50.872;4.386;2022-08-14T09:00:47;34.70;35.30
14473;DHT22;7322;50.872;4.386;2022-08-14T09:03:17;34.70;33.80
14473;DHT22;7322;50.872;4.386;2022-08-14T09:05:52;35.10;33.30
14473;DHT22;7322;50.872;4.386;2022-08-14T09:08:21;34.80;33.70
14473;DHT22;7322;50.872;4.386;2022-08-14T09:10:49;34.30;33.80
14473;DHT22;7322;50.872;4.386;2022-08-14T09:13:18;34.20;34.30
14473;DHT22;7322;50.872;4.386;2022-08-14T09:15:48;33.70;35.10
14473;DHT22;7322;50.872;4.386;2022-08-14T09:18:17;33.70;35.30
14473;DHT22;7322;50.872;4.386;2022-08-14T09:20:47;34.10;35.00
14473;DHT22;7322;50.872;4.386;2022-08-14T09:23:15;33.70;35.60
14473;DHT22;7322;50.872;4.386;2022-08-14T09:25:45;33.80;35.60
14473;DHT22;7322;50.872;4.386;2022-08-14T09:28:13;33.70;34.90
14473;DHT22;7322;50.872;4.386;2022-08-14T09:30:43;33.40;35.30
14473;DHT22;7322;50.872;4.386;2022-08-14T09:33:32;33.60;35.60
14473;DHT22;7322;50.872;4.386;2022-08-14T09:36:30;33.60;36.50
14473;DHT22;7322;50.872;4.386;2022-08-14T09:39:05;34.70;35.20
14473;DHT22;7322;50.872;4.386;2022-08-14T09:41:46;35.20;33.90
14473;DHT22;7322;50.872;4.386;2022-08-14T09:44:27;34.50;34.00
14473;DHT22;7322;50.872;4.386;2022-08-14T09:46:56;33.60;35.20
14473;DHT22;7322;50.872;4.386;2022-08-14T09:49:31;33.10;36.00
14473;DHT22;7322;50.872;4.386;2022-08-14T09:52:05;32.70;36.80
14473;DHT22;7322;50.872;4.386;2022-08-14T09:54:38;33.00;37.10
14473;DHT22;7322;50.872;4.386;2022-08-14T09:57:08;33.00;37.00
14473;DHT22;7322;50.872;4.386;2022-08-14T09:59:39;33.00;37.00
14473;DHT22;7322;50.872;4.386;2022-08-14T10:02:18;32.90;38.00
14473;DHT22;7322;50.872;4.386;2022-08-14T10:04:58;33.00;38.00
14473;DHT22;7322;50.872;4.386;2022-08-14T10:07:29;33.60;38.10
14473;DHT22;7322;50.872;4.386;2022-08-14T10:09:57;34.20;37.30
14473;DHT22;7322;50.872;4.386;2022-08-14T10:12:25;34.90;36.70
14473;DHT22;7322;50.872;4.386;2022-08-14T10:14:55;35.50;35.50
14473;DHT22;7322;50.872;4.386;2022-08-14T10:17:22;35.90;34.80
14473;DHT22;7322;50.872;4.386;2022-08-14T10:19:52;36.20;34.30
14473;DHT22;7322;50.872;4.386;2022-08-14T10:22:24;35.80;33.90
14473;DHT22;7322;50.872;4.386;2022-08-14T10:24:53;36.40;34.70
14473;DHT22;7322;50.872;4.386;2022-08-14T10:27:22;36.10;33.90
14473;DHT22;7322;50.872;4.386;2022-08-14T10:29:51;36.30;33.40
14473;DHT22;7322;50.872;4.386;2022-08-14T10:32:19;36.10;32.30
14473;DHT22;7322;50.872;4.386;2022-08-14T10:34:48;36.10;32.90
14473;DHT22;7322;50.872;4.386;2022-08-14T10:37:17;36.60;31.50
14473;DHT22;7322;50.872;4.386;2022-08-14T10:39:56;36.60;32.10
14473;DHT22;7322;50.872;4.386;2022-08-14T10:42:33;37.30;30.60
14473;DHT22;7322;50.872;4.386;2022-08-14T10:45:01;36.80;29.70
14473;DHT22;7322;50.872;4.386;2022-08-14T10:47:33;36.80;30.70
14473;DHT22;7322;50.872;4.386;2022-08-14T10:50:01;37.20;30.40
14473;DHT22;7322;50.872;4.386;2022-08-14T10:52:32;36.90;30.30
14473;DHT22;7322;50.872;4.386;2022-08-14T10:55:08;36.70;31.00
14473;DHT22;7322;50.872;4.386;2022-08-14T10:57:46;37.60;30.40
14473;DHT22;7322;50.872;4.386;2022-08-14T11:00:17;37.90;30.70
14473;DHT22;7322;50.872;4.386;2022-08-14T11:02:56;37.80;28.40
14473;DHT22;7322;50.872;4.386;2022-08-14T11:05:24;37.20;28.80
14473;DHT22;7322;50.872;4.386;2022-08-14T11:07:58;37.30;28.70
14473;DHT22;7322;50.872;4.386;2022-08-14T11:10:39;37.40;28.60
14473;DHT22;7322;50.872;4.386;2022-08-14T11:13:07;37.90;28.20
14473;DHT22;7322;50.872;4.386;2022-08-14T11:15:34;37.80;27.90
14473;DHT22;7322;50.872;4.386;2022-08-14T11:18:02;37.90;27.70
14473;DHT22;7322;50.872;4.386;2022-08-14T11:20:30;38.50;27.40
14473;DHT22;7322;50.872;4.386;2022-08-14T11:22:59;38.10;27.20
14473;DHT22;7322;50.872;4.386;2022-08-14T11:25:29;37.90;27.80
14473;DHT22;7322;50.872;4.386;2022-08-14T11:27:58;38.30;26.90
14473;DHT22;7322;50.872;4.386;2022-08-14T11:30:27;38.60;26.00
14473;DHT22;7322;50.872;4.386;2022-08-14T11:32:56;38.60;26.60
14473;DHT22;7322;50.872;4.386;2022-08-14T11:35:25;38.30;26.50
14473;DHT22;7322;50.872;4.386;2022-08-14T11:37:53;38.30;26.30
14473;DHT22;7322;50.872;4.386;2022-08-14T11:40:25;37.90;26.60
14473;DHT22;7322;50.872;4.386;2022-08-14T11:42:54;37.90;26.80
14473;DHT22;7322;50.872;4.386;2022-08-14T11:45:22;38.00;26.40
14473;DHT22;7322;50.872;4.386;2022-08-14T11:47:54;38.00;26.60
14473;DHT22;7322;50.872;4.386;2022-08-14T11:50:23;38.40;26.20
14473;DHT22;7322;50.872;4.386;2022-08-14T11:52:51;38.30;26.40
14473;DHT22;7322;50.872;4.386;2022-08-14T11:55:24;38.00;26.20
14473;DHT22;7322;50.872;4.386;2022-08-14T11:57:59;37.10;26.50
14473;DHT22;7322;50.872;4.386;2022-08-14T12:00:27;37.50;26.60
14473;DHT22;7322;50.872;4.386;2022-08-14T12:02:56;37.10;26.70
14473;DHT22;7322;50.872;4.386;2022-08-14T12:05:30;37.70;26.60
14473;DHT22;7322;50.872;4.386;2022-08-14T12:07:58;38.20;26.10
14473;DHT22;7322;50.872;4.386;2022-08-14T12:10:27;38.10;26.10
14473;DHT22;7322;50.872;4.386;2022-08-14T12:12:56;38.10;26.30
14473;DHT22;7322;50.872;4.386;2022-08-14T12:15:30;38.40;26.40
14473;DHT22;7322;50.872;4.386;2022-08-14T12:17:57;38.60;26.60
14473;DHT22;7322;50.872;4.386;2022-08-14T12:20:30;38.30;26.30
14473;DHT22;7322;50.872;4.386;2022-08-14T12:22:57;37.30;26.40
14473;DHT22;7322;50.872;4.386;2022-08-14T12:25:27;36.70;27.40
14473;DHT22;7322;50.872;4.386;2022-08-14T12:27:56;37.50;27.10
14473;DHT22;7322;50.872;4.386;2022-08-14T12:30:28;37.70;26.40
14473;DHT22;7322;50.872;4.386;2022-08-14T12:32:56;37.30;26.50
14473;DHT22;7322;50.872;4.386;2022-08-14T12:35:33;37.00;26.50
14473;DHT22;7322;50.872;4.386;2022-08-14T12:38:00;37.20;26.80
14473;DHT22;7322;50.872;4.386;2022-08-14T12:40:29;37.30;25.90
14473;DHT22;7322;50.872;4.386;2022-08-14T12:42:59;37.30;26.30
14473;DHT22;7322;50.872;4.386;2022-08-14T12:45:32;37.80;25.90
14473;DHT22;7322;50.872;4.386;2022-08-14T12:48:02;38.20;26.00
14473;DHT22;7322;50.872;4.386;2022-08-14T12:50:38;38.00;25.50
14473;DHT22;7322;50.872;4.386;2022-08-14T12:53:05;37.80;25.00
14473;DHT22;7322;50.872;4.386;2022-08-14T12:55:35;37.30;25.40
14473;DHT22;7322;50.872;4.386;2022-08-14T12:58:04;36.10;25.90
14473;DHT22;7322;50.872;4.386;2022-08-14T13:00:32;35.80;26.30
14473;DHT22;7322;50.872;4.386;2022-08-14T13:03:00;36.70;26.20
14473;DHT22;7322;50.872;4.386;2022-08-14T13:05:31;37.00;25.50
14473;DHT22;7322;50.872;4.386;2022-08-14T13:08:02;37.40;25.60
14473;DHT22;7322;50.872;4.386;2022-08-14T13:10:31;37.40;25.20
14473;DHT22;7322;50.872;4.386;2022-08-14T13:13:00;37.80;25.20
14473;DHT22;7322;50.872;4.386;2022-08-14T13:15:28;38.10;25.20
14473;DHT22;7322;50.872;4.386;2022-08-14T13:17:55;37.90;25.50
14473;DHT22;7322;50.872;4.386;2022-08-14T13:20:25;37.30;25.90
14473;DHT22;7322;50.872;4.386;2022-08-14T13:22:53;36.80;26.00
14473;DHT22;7322;50.872;4.386;2022-08-14T13:25:23;37.00;26.40
14473;DHT22;7322;50.872;4.386;2022-08-14T13:27:52;37.10;26.10
14473;DHT22;7322;50.872;4.386;2022-08-14T13:30:22;36.90;26.30
14473;DHT22;7322;50.872;4.386;2022-08-14T13:32:51;37.10;26.50
14473;DHT22;7322;50.872;4.386;2022-08-14T13:35:19;37.00;26.40
14473;DHT22;7322;50.872;4.386;2022-08-14T13:37:46;36.90;26.50
14473;DHT22;7322;50.872;4.386;2022-08-14T13:40:14;37.00;26.70
14473;DHT22;7322;50.872;4.386;2022-08-14T13:42:43;37.20;26.80
14473;DHT22;7322;50.872;4.386;2022-08-14T13:45:10;37.20;26.90
14473;DHT22;7322;50.872;4.386;2022-08-14T13:47:42;37.40;27.20
14473;DHT22;7322;50.872;4.386;2022-08-14T13:50:12;37.00;26.70
14473;DHT22;7322;50.872;4.386;2022-08-14T13:52:41;36.70;26.60
14473;DHT22;7322;50.872;4.386;2022-08-14T13:55:09;36.90;27.30
14473;DHT22;7322;50.872;4.386;2022-08-14T13:57:39;36.80;26.60
14473;DHT22;7322;50.872;4.386;2022-08-14T14:00:10;37.10;26.70
14473;DHT22;7322;50.872;4.386;2022-08-14T14:02:40;36.70;27.00
14473;DHT22;7322;50.872;4.386;2022-08-14T14:05:08;36.10;27.40
14473;DHT22;7322;50.872;4.386;2022-08-14T14:07:37;36.00;27.40
14473;DHT22;7322;50.872;4.386;2022-08-14T14:10:06;36.10;27.40
14473;DHT22;7322;50.872;4.386;2022-08-14T14:12:34;35.80;27.70
14473;DHT22;7322;50.872;4.386;2022-08-14T14:15:03;36.20;27.80
14473;DHT22;7322;50.872;4.386;2022-08-14T14:17:30;36.60;27.40
14473;DHT22;7322;50.872;4.386;2022-08-14T14:19:58;36.30;27.30
14473;DHT22;7322;50.872;4.386;2022-08-14T14:22:25;36.00;26.40
14473;DHT22;7322;50.872;4.386;2022-08-14T14:24:53;35.90;26.60
14473;DHT22;7322;50.872;4.386;2022-08-14T14:27:21;35.70;26.80
14473;DHT22;7322;50.872;4.386;2022-08-14T14:29:51;35.50;27.30
14473;DHT22;7322;50.872;4.386;2022-08-14T14:32:19;35.20;27.30
14473;DHT22;7322;50.872;4.386;2022-08-14T14:34:51;34.90;27.40
14473;DHT22;7322;50.872;4.386;2022-08-14T14:37:21;34.50;28.00
14473;DHT22;7322;50.872;4.386;2022-08-14T14:39:49;34.80;28.20
14473;DHT22;7322;50.872;4.386;2022-08-14T14:42:18;34.90;28.10
14473;DHT22;7322;50.872;4.386;2022-08-14T14:44:45;34.80;27.80
14473;DHT22;7322;50.872;4.386;2022-08-14T14:47:17;34.90;27.60
14473;DHT22;7322;50.872;4.386;2022-08-14T14:49:48;34.80;27.80
14473;DHT22;7322;50.872;4.386;2022-08-14T14:52:15;34.80;27.70
14473;DHT22;7322;50.872;4.386;2022-08-14T14:54:43;34.80;27.80
14473;DHT22;7322;50.872;4.386;2022-08-14T14:57:14;34.90;27.80
14473;DHT22;7322;50.872;4.386;2022-08-14T14:59:42;35.00;28.00
14473;DHT22;7322;50.872;4.386;2022-08-14T15:02:23;35.20;27.90
14473;DHT22;7322;50.872;4.386;2022-08-14T15:04:51;34.90;27.90
14473;DHT22;7322;50.872;4.386;2022-08-14T15:07:18;35.10;28.00
14473;DHT22;7322;50.872;4.386;2022-08-14T15:09:47;34.40;28.30
14473;DHT22;7322;50.872;4.386;2022-08-14T15:12:13;34.20;28.50
14473;DHT22;7322;50.872;4.386;2022-08-14T15:14:40;34.40;28.80
14473;DHT22;7322;50.872;4.386;2022-08-14T15:17:07;34.50;28.40
14473;DHT22;7322;50.872;4.386;2022-08-14T15:19:34;34.30;28.60
14473;DHT22;7322;50.872;4.386;2022-08-14T15:22:01;34.00;28.90
14473;DHT22;7322;50.872;4.386;2022-08-14T15:24:28;34.00;29.10
14473;DHT22;7322;50.872;4.386;2022-08-14T15:26:56;33.90;28.90
14473;DHT22;7322;50.872;4.386;2022-08-14T15:29:24;34.00;29.40
14473;DHT22;7322;50.872;4.386;2022-08-14T15:31:52;33.90;29.40
14473;DHT22;7322;50.872;4.386;2022-08-14T15:34:19;34.10;29.40
14473;DHT22;7322;50.872;4.386;2022-08-14T15:36:46;34.30;29.50
14473;DHT22;7322;50.872;4.386;2022-08-14T15:39:13;34.50;28.70
14473;DHT22;7322;50.872;4.386;2022-08-14T15:41:40;34.20;28.80
14473;DHT22;7322;50.872;4.386;2022-08-14T15:44:09;34.00;28.60
14473;DHT22;7322;50.872;4.386;2022-08-14T15:46:38;33.80;28.80
14473;DHT22;7322;50.872;4.386;2022-08-14T15:49:05;33.80;28.70
14473;DHT22;7322;50.872;4.386;2022-08-14T15:51:32;33.90;29.10
14473;DHT22;7322;50.872;4.386;2022-08-14T15:53:59;33.90;28.40
14473;DHT22;7322;50.872;4.386;2022-08-14T15:56:26;34.00;28.50
14473;DHT22;7322;50.872;4.386;2022-08-14T15:58:53;34.00;28.80